Time;durP1;ratioP1;P1;durP2;ratioP2;P2;SDS_P1;SDS_P2;PMS_P1;PMS_P2;Temp;Humidity;BMP_temperature;BMP_pressure;BME280_temperature;BME280_humidity;BME280_pressure;Samples;Min_cycle;Max_cycle;Signal;HPM_P1;HPM_P2
2023/01/10 00:00:57;;;;;;;17.40;6.90;;;-8.20;99.90;;;;;;4938701;28;20051;-70
2023/01/10 00:03:24;;;;;;;14.15;6.68;;;-8.20;99.90;;;;;;4942917;28;20133;-70
2023/01/10 00:05:52;;;;;;;15.90;7.35;;;-8.30;99.90;;;;;;4947787;28;20118;-70
2023/01/10 00:08:19;;;;;;;8.40;5.45;;;-8.30;99.90;;;;;;4948324;29;20054;-70
2023/01/10 00:10:48;;;;;;;17.35;6.18;;;-8.30;99.90;;;;;;4954178;28;20054;-70
2023/01/10 00:13:25;;;;;;;9.77;5.50;;;-8.30;99.90;;;;;;4953651;28;20523;-70
2023/01/10 00:15:53;;;;;;;12.68;6.65;;;-8.30;99.90;;;;;;4954416;28;20062;-70
2023/01/10 00:18:21;;;;;;;15.77;6.65;;;-8.40;99.90;;;;;;4954113;28;20051;-69
2023/01/10 00:20:49;;;;;;;17.83;7.25;;;-8.30;99.90;;;;;;4953489;28;20063;-70
2023/01/10 00:23:22;;;;;;;9.90;5.40;;;-8.30;99.90;;;;;;4954510;28;20043;-71
2023/01/10 00:25:50;;;;;;;;;;;-8.30;99.90;;;;;;4953829;29;20142;-71
2023/01/10 00:28:19;;;;;;;10.60;5.95;;;-8.20;99.90;;;;;;4953299;28;19926;-70
2023/01/10 00:30:57;;;;;;;13.25;5.68;;;-8.30;99.90;;;;;;4953084;28;20055;-69
2023/01/10 00:33:24;;;;;;;14.60;6.68;;;-8.30;99.90;;;;;;4954527;28;20054;-70
2023/01/10 00:35:52;;;;;;;13.18;5.25;;;-8.30;99.90;;;;;;4953978;28;20047;-70
2023/01/10 00:38:19;;;;;;;10.38;5.75;;;-8.30;99.90;;;;;;4935518;29;20051;-69
2023/01/10 00:40:47;;;;;;;15.18;6.60;;;-8.30;99.90;;;;;;4950981;28;20070;-69
2023/01/10 00:46:03;;;;;;;13.82;6.03;;;-8.30;99.90;;;;;;4936597;28;20607;-69
2023/01/10 00:48:30;;;;;;;10.13;5.20;;;-8.30;99.90;;;;;;4953409;28;20063;-71
2023/01/10 00:50:58;;;;;;;14.38;5.30;;;-8.30;99.90;;;;;;4953803;29;20051;-70
2023/01/10 00:53:26;;;;;;;13.93;5.72;;;-8.30;99.90;;;;;;4950239;29;20051;-70
2023/01/10 00:55:54;;;;;;;8.82;4.75;;;-8.30;99.90;;;;;;4936791;29;20548;-70
2023/01/10 00:58:23;;;;;;;7.93;4.63;;;-8.30;99.90;;;;;;4952330;28;20516;-70
2023/01/10 01:00:51;;;;;;;11.13;5.30;;;-8.30;99.90;;;;;;4945273;28;20665;-69
2023/01/10 01:03:21;;;;;;;11.05;6.75;;;-8.30;99.90;;;;;;4943272;29;20067;-70
2023/01/10 01:05:49;;;;;;;10.65;5.90;;;-8.30;99.90;;;;;;4952528;28;20121;-69
2023/01/10 01:08:18;;;;;;;14.65;5.95;;;-8.20;99.90;;;;;;4952036;29;20054;-69
2023/01/10 01:10:46;;;;;;;14.52;6.60;;;-8.20;99.90;;;;;;4951155;28;20051;-69
2023/01/10 01:13:17;;;;;;;13.43;6.05;;;-8.20;99.90;;;;;;4948993;28;20055;-71
2023/01/10 01:15:47;;;;;;;9.50;5.13;;;-8.20;99.90;;;;;;4940978;28;20496;-69
2023/01/10 01:18:17;;;;;;;11.68;5.60;;;-8.10;99.90;;;;;;4950712;29;20120;-70
2023/01/10 01:20:45;;;;;;;14.80;5.85;;;-8.10;99.90;;;;;;4952957;28;20562;-70
2023/01/10 01:23:13;;;;;;;16.05;6.00;;;-8.10;99.90;;;;;;4939286;28;20070;-70
2023/01/10 01:25:40;;;;;;;14.38;6.00;;;-8.10;99.90;;;;;;4958549;28;20079;-70
2023/01/10 01:28:09;;;;;;;16.63;6.00;;;-8.10;99.90;;;;;;4936856;29;20051;-69
2023/01/10 01:30:37;;;;;;;11.63;5.95;;;-8.00;99.90;;;;;;4942183;29;20061;-69
2023/01/10 01:33:06;;;;;;;13.63;6.65;;;-8.00;99.90;;;;;;4955980;28;20053;-69
2023/01/10 01:35:33;;;;;;;13.90;5.22;;;-8.00;99.90;;;;;;4953225;28;20043;-69
2023/01/10 01:38:00;;;;;;;12.65;5.57;;;-8.00;99.90;;;;;;4950830;28;20508;-70
2023/01/10 01:40:28;;;;;;;12.27;6.55;;;-8.10;99.90;;;;;;4947724;29;20517;-70
2023/01/10 01:42:55;;;;;;;9.02;4.80;;;-8.00;99.90;;;;;;4945629;28;20051;-71
2023/01/10 01:45:38;;;;;;;15.77;6.55;;;-8.10;99.90;;;;;;4951183;28;20442;-70
2023/01/10 01:48:16;;;;;;;11.65;4.45;;;-8.10;99.90;;;;;;4934223;29;20063;-70
2023/01/10 01:50:50;;;;;;;13.20;5.80;;;-8.20;99.90;;;;;;4945816;29;20047;-71
2023/01/10 01:53:24;;;;;;;11.55;5.95;;;-8.20;99.90;;;;;;4952041;28;20051;-70
2023/01/10 01:55:54;;;;;;;13.95;6.25;;;-8.20;99.90;;;;;;4951784;28;20047;-70
2023/01/10 01:58:29;;;;;;;16.10;6.68;;;-8.20;99.90;;;;;;4949314;29;20043;-70
2023/01/10 02:00:58;;;;;;;9.32;5.97;;;-8.30;99.90;;;;;;4953729;28;20412;-70
2023/01/10 02:03:28;;;;;;;15.40;5.82;;;-8.30;99.90;;;;;;4939147;28;20055;-70
2023/01/10 02:05:56;;;;;;;19.60;6.50;;;-8.30;99.90;;;;;;4934147;29;20098;-70
2023/01/10 02:08:23;;;;;;;15.60;6.03;;;-8.30;99.90;;;;;;4953511;28;20051;-69
2023/01/10 02:10:59;;;;;;;14.68;6.05;;;-8.30;99.90;;;;;;4956544;28;20069;-69
2023/01/10 02:13:28;;;;;;;13.30;5.97;;;-8.30;99.90;;;;;;4936379;28;20059;-70
2023/01/10 02:15:55;;;;;;;12.65;7.38;;;-8.30;99.90;;;;;;4949846;29;20055;-69
2023/01/10 02:18:24;;;;;;;14.80;7.05;;;-8.30;99.90;;;;;;4951052;28;20051;-68
2023/01/10 02:21:15;;;;;;;15.95;7.32;;;-8.20;99.90;;;;;;4952306;28;20134;-69
2023/01/10 02:24:42;;;;;;;12.25;4.93;;;-8.30;99.90;;;;;;4965731;28;20212;-70
2023/01/10 02:27:24;;;;;;;10.32;5.30;;;-8.30;99.90;;;;;;4909029;28;20056;-70
2023/01/10 02:30:55;;;;;;;23.13;7.50;;;-8.30;99.90;;;;;;4936061;29;20043;-69
2023/01/10 02:33:30;;;;;;;9.98;6.20;;;-8.30;99.90;;;;;;4948018;29;20047;-70
2023/01/10 02:36:16;;;;;;;18.85;5.70;;;-8.40;99.90;;;;;;4940884;29;20047;-70
2023/01/10 02:38:58;;;;;;;15.48;5.65;;;-8.30;99.90;;;;;;4950657;28;20055;-70
2023/01/10 02:41:32;;;;;;;14.45;5.82;;;-8.30;99.90;;;;;;4933483;29;20147;-71
2023/01/10 02:44:08;;;;;;;13.38;6.38;;;-8.30;99.90;;;;;;4946717;29;20055;-70
2023/01/10 02:46:38;;;;;;;15.35;5.95;;;-8.30;99.90;;;;;;4950666;28;20051;-70
2023/01/10 02:49:06;;;;;;;14.55;5.95;;;-8.30;99.90;;;;;;4949416;28;20417;-70
2023/01/10 02:51:34;;;;;;;9.07;5.68;;;-8.30;99.90;;;;;;4951346;28;20058;-70
2023/01/10 02:54:08;;;;;;;16.90;6.13;;;-8.20;99.90;;;;;;4951024;28;20067;-69
2023/01/10 02:57:05;;;;;;;16.13;6.05;;;-8.20;99.90;;;;;;4949625;28;20050;-69
2023/01/10 02:59:54;;;;;;;9.85;5.25;;;-8.20;99.90;;;;;;4939004;29;20047;-69
2023/01/10 03:02:57;;;;;;;8.90;5.55;;;-8.20;99.90;;;;;;4945831;29;20059;-69
2023/01/10 03:05:42;;;;;;;11.73;5.78;;;-8.20;99.90;;;;;;4938058;28;20050;-69
2023/01/10 03:08:25;;;;;;;15.00;5.85;;;-8.20;99.90;;;;;;4951137;28;20104;-69
2023/01/10 03:10:58;;;;;;;8.93;4.90;;;-8.20;99.90;;;;;;4938691;28;20052;-70
2023/01/10 03:13:31;;;;;;;14.27;5.22;;;-8.20;99.90;;;;;;4940955;28;20075;-70
2023/01/10 03:16:02;;;;;;;11.57;5.47;;;-8.20;99.90;;;;;;4944038;28;20061;-70
2023/01/10 03:18:36;;;;;;;15.40;6.50;;;-8.20;99.90;;;;;;4949827;29;20047;-69
2023/01/10 03:21:08;;;;;;;10.95;6.20;;;-8.20;99.90;;;;;;4935645;28;20062;-70
2023/01/10 03:23:36;;;;;;;12.30;6.00;;;-8.20;99.90;;;;;;4947066;28;20107;-69
2023/01/10 03:26:06;;;;;;;12.85;5.82;;;-8.20;99.90;;;;;;4950769;29;20040;-70
2023/01/10 03:28:40;;;;;;;12.85;5.40;;;-8.20;99.90;;;;;;4949876;28;20456;-69
2023/01/10 03:31:14;;;;;;;8.80;5.30;;;-8.20;99.90;;;;;;4964314;28;20047;-71
2023/01/10 03:33:42;;;;;;;12.00;6.05;;;-8.20;99.90;;;;;;4932390;29;20055;-69
2023/01/10 03:36:25;;;;;;;16.00;6.00;;;-8.10;99.90;;;;;;4932625;29;20048;-70
2023/01/10 03:38:54;;;;;;;;;;;-8.10;99.90;;;;;;4946588;29;20043;-70
2023/01/10 03:41:35;;;;;;;11.40;5.30;;;-8.00;99.90;;;;;;4949612;28;19990;-70
2023/01/10 03:47:07;;;;;;;13.25;6.47;;;-8.10;99.90;;;;;;4934076;29;20052;-70
2023/01/10 03:49:38;;;;;;;12.93;5.32;;;-8.10;99.90;;;;;;4947078;28;20404;-70
2023/01/10 03:52:11;;;;;;;9.20;5.63;;;-8.10;99.90;;;;;;4932281;29;20048;-70
2023/01/10 03:54:39;;;;;;;10.27;5.85;;;-8.10;99.90;;;;;;4944643;29;20118;-70
2023/01/10 03:57:07;;;;;;;18.52;6.93;;;-8.10;99.90;;;;;;4951111;28;20424;-70
2023/01/10 03:59:35;;;;;;;14.15;6.75;;;-8.10;99.90;;;;;;4949533;28;20115;-71
2023/01/10 04:02:02;;;;;;;10.95;6.07;;;-8.10;99.90;;;;;;4946999;28;20051;-70
2023/01/10 04:04:31;;;;;;;14.15;6.43;;;-8.20;99.90;;;;;;4963635;28;20051;-70
2023/01/10 04:06:58;;;;;;;9.35;5.07;;;-8.20;99.90;;;;;;4952011;28;20048;-70
2023/01/10 04:09:27;;;;;;;12.98;6.30;;;-8.20;99.90;;;;;;4960307;28;20138;-70
2023/01/10 04:11:54;;;;;;;14.80;6.85;;;-8.20;99.90;;;;;;4945450;28;20051;-70
2023/01/10 04:14:22;;;;;;;14.30;6.03;;;-8.20;99.90;;;;;;4958526;28;20499;-71
2023/01/10 04:16:49;;;;;;;14.60;6.45;;;-8.20;99.90;;;;;;4956543;28;20054;-70
2023/01/10 04:19:17;;;;;;;12.18;6.85;;;-8.20;99.90;;;;;;4953463;28;20139;-71
2023/01/10 04:21:44;;;;;;;11.65;5.80;;;-8.20;99.90;;;;;;4945773;28;20147;-73
2023/01/10 04:24:12;;;;;;;10.65;6.57;;;-8.20;99.90;;;;;;4945541;29;20428;-72
2023/01/10 04:26:40;;;;;;;15.60;6.90;;;-8.20;99.90;;;;;;4954011;29;20062;-73
2023/01/10 04:29:08;;;;;;;15.65;6.20;;;-8.20;99.90;;;;;;4954406;29;20473;-73
2023/01/10 04:31:35;;;;;;;15.38;6.97;;;-8.20;99.90;;;;;;4954856;28;20047;-73
2023/01/10 04:34:03;;;;;;;14.75;6.95;;;-8.10;99.90;;;;;;4953114;29;20138;-73
2023/01/10 04:36:30;;;;;;;18.17;6.88;;;-8.10;99.90;;;;;;4943502;28;20107;-73
2023/01/10 04:38:58;;;;;;;16.95;7.60;;;-8.10;99.90;;;;;;4951476;29;20051;-74
2023/01/10 04:41:26;;;;;;;11.82;7.03;;;-8.20;99.90;;;;;;4951717;28;20405;-73
2023/01/10 04:44:04;;;;;;;13.05;6.07;;;-8.10;99.90;;;;;;4947130;29;20134;-68
2023/01/10 04:46:33;;;;;;;16.15;7.55;;;-8.20;99.90;;;;;;4945059;29;20102;-68
2023/01/10 04:49:00;;;;;;;15.40;7.05;;;-8.10;99.90;;;;;;4943212;29;20103;-68
2023/01/10 04:51:28;;;;;;;16.90;7.22;;;-8.10;99.90;;;;;;4944510;29;20074;-68
2023/01/10 04:53:56;;;;;;;13.38;6.85;;;-8.10;99.90;;;;;;4949018;29;20139;-68
2023/01/10 04:56:24;;;;;;;12.93;6.47;;;-8.00;99.90;;;;;;4979146;28;20058;-68
2023/01/10 04:58:51;;;;;;;11.00;5.57;;;-7.90;99.90;;;;;;4954458;28;20518;-67
2023/01/10 05:01:23;;;;;;;13.52;6.38;;;-7.90;99.90;;;;;;4947776;28;20142;-74
2023/01/10 05:03:52;;;;;;;17.80;8.18;;;-7.90;99.90;;;;;;4949406;29;20124;-71
2023/01/10 05:06:21;;;;;;;11.30;6.43;;;-7.90;99.90;;;;;;4951539;28;20058;-72
2023/01/10 05:08:49;;;;;;;17.52;7.60;;;-7.90;99.90;;;;;;4950751;29;20051;-71
2023/01/10 05:11:16;;;;;;;18.65;7.22;;;-7.90;99.90;;;;;;4953447;29;20047;-72
2023/01/10 05:13:44;;;;;;;14.55;6.97;;;-7.90;99.90;;;;;;4946824;29;20173;-70
2023/01/10 05:16:11;;;;;;;9.32;5.45;;;-7.90;99.90;;;;;;4963871;28;20063;-69
2023/01/10 05:18:40;;;;;;;14.85;6.70;;;-8.00;99.90;;;;;;4946347;28;20043;-67
2023/01/10 05:21:10;;;;;;;12.50;6.70;;;-8.00;99.90;;;;;;4952616;28;20131;-70
2023/01/10 05:23:38;;;;;;;14.07;6.95;;;-8.00;99.90;;;;;;4951617;29;20563;-67
2023/01/10 05:26:07;;;;;;;16.05;6.88;;;-8.00;99.90;;;;;;4934760;29;20472;-67
2023/01/10 05:28:35;;;;;;;12.00;6.95;;;-7.90;99.90;;;;;;4950797;29;20118;-69
2023/01/10 05:31:02;;;;;;;15.02;7.32;;;-8.00;99.90;;;;;;4966823;28;20612;-69
2023/01/10 05:33:30;;;;;;;17.35;7.60;;;-8.00;99.90;;;;;;4952341;29;20047;-67
2023/01/10 05:36:01;;;;;;;14.80;7.00;;;-8.00;99.90;;;;;;4953543;28;20090;-67
2023/01/10 05:38:29;;;;;;;10.15;5.53;;;-8.00;99.90;;;;;;4953717;28;20570;-68
2023/01/10 05:40:57;;;;;;;14.13;5.75;;;-8.00;99.90;;;;;;4955606;28;20047;-68
2023/01/10 05:43:25;;;;;;;9.77;5.38;;;-8.00;99.90;;;;;;4962528;28;20055;-68
2023/01/10 05:45:53;;;;;;;13.02;6.47;;;-8.00;99.90;;;;;;4954225;28;20043;-67
2023/01/10 05:48:21;;;;;;;18.27;7.93;;;-8.00;99.90;;;;;;4952691;28;20055;-68
2023/01/10 05:50:50;;;;;;;16.98;7.53;;;-8.00;99.90;;;;;;4958102;28;20451;-68
2023/01/10 05:53:20;;;;;;;14.63;7.03;;;-7.90;99.90;;;;;;4956338;28;20146;-68
2023/01/10 05:55:54;;;;;;;13.20;6.68;;;-7.90;99.90;;;;;;4968086;28;20043;-67
2023/01/10 05:58:22;;;;;;;12.68;7.13;;;-7.80;99.90;;;;;;4977926;28;20427;-67
2023/01/10 06:00:49;;;;;;;15.05;7.00;;;-7.80;99.90;;;;;;4976432;28;20039;-66
2023/01/10 06:03:18;;;;;;;15.00;8.05;;;-7.90;99.90;;;;;;4958500;28;20087;-66
2023/01/10 06:05:46;;;;;;;14.80;7.05;;;-7.90;99.90;;;;;;4953915;28;20054;-69
2023/01/10 06:08:13;;;;;;;15.43;7.82;;;-7.80;99.90;;;;;;4955071;28;20062;-67
2023/01/10 06:10:43;;;;;;;25.33;8.23;;;-7.80;99.90;;;;;;4963638;28;20047;-67
2023/01/10 06:13:11;;;;;;;14.90;7.10;;;-7.80;99.90;;;;;;4964599;28;20066;-68
2023/01/10 06:15:38;;;;;;;17.60;7.53;;;-7.90;99.90;;;;;;4973186;28;20054;-68
2023/01/10 06:18:07;;;;;;;15.70;7.38;;;-7.90;99.90;;;;;;4956032;28;20084;-66
2023/01/10 06:20:36;;;;;;;24.52;9.77;;;-7.90;99.90;;;;;;4973256;28;20442;-68
2023/01/10 06:23:04;;;;;;;16.95;7.45;;;-7.90;99.90;;;;;;4959216;28;20087;-67
2023/01/10 06:25:32;;;;;;;13.80;7.63;;;-7.90;99.90;;;;;;4964262;28;20042;-67
2023/01/10 06:28:01;;;;;;;18.13;7.50;;;-7.90;99.90;;;;;;4957535;28;20143;-67
2023/01/10 06:30:29;;;;;;;17.48;8.63;;;-7.90;99.90;;;;;;4954541;28;20496;-67
2023/01/10 06:33:02;;;;;;;15.65;7.50;;;-7.90;99.90;;;;;;4957281;28;20155;-66
2023/01/10 06:35:30;;;;;;;16.15;7.55;;;-8.00;99.90;;;;;;4957072;28;20163;-68
2023/01/10 06:37:58;;;;;;;14.43;8.13;;;-7.90;99.90;;;;;;4957131;28;20538;-68
2023/01/10 06:40:26;;;;;;;19.75;7.75;;;-7.90;99.90;;;;;;4965344;28;20127;-72
2023/01/10 06:42:53;;;;;;;16.40;7.80;;;-7.90;99.90;;;;;;4959659;28;20051;-73
2023/01/10 06:45:22;;;;;;;24.58;9.80;;;-7.90;99.90;;;;;;4962123;28;20429;-72
2023/01/10 06:47:49;;;;;;;18.33;9.00;;;-7.90;99.90;;;;;;4951124;28;20035;-73
2023/01/10 06:50:17;;;;;;;20.67;7.60;;;-7.90;99.90;;;;;;4952988;29;20051;-73
2023/01/10 06:52:44;;;;;;;18.92;7.93;;;-7.90;99.90;;;;;;4972785;28;20057;-72
2023/01/10 06:55:12;;;;;;;15.98;7.90;;;-7.90;99.90;;;;;;4954791;28;20063;-72
2023/01/10 06:57:40;;;;;;;17.58;8.88;;;-7.90;99.90;;;;;;4953752;28;20102;-72
2023/01/10 07:00:10;;;;;;;16.13;8.32;;;-7.80;99.90;;;;;;4943167;28;20090;-71
2023/01/10 07:02:39;;;;;;;18.13;8.02;;;-7.80;99.90;;;;;;4950284;28;20055;-72
2023/01/10 07:05:07;;;;;;;17.75;8.68;;;-7.80;99.90;;;;;;4945650;28;20051;-72
2023/01/10 07:07:35;;;;;;;16.10;7.88;;;-7.80;99.90;;;;;;4941720;29;20051;-73
2023/01/10 07:10:02;;;;;;;15.02;8.23;;;-7.80;99.90;;;;;;4942960;28;20048;-74
2023/01/10 07:12:30;;;;;;;17.88;8.15;;;-7.70;99.90;;;;;;4967067;28;20058;-74
2023/01/10 07:14:57;;;;;;;18.80;8.10;;;-7.70;99.90;;;;;;4965052;28;20039;-75
2023/01/10 07:17:25;;;;;;;17.30;7.55;;;-7.60;99.90;;;;;;4949555;28;20054;-73
2023/01/10 07:19:54;;;;;;;18.35;8.02;;;-7.60;99.90;;;;;;4941848;29;20051;-71
2023/01/10 07:22:22;;;;;;;20.63;9.52;;;-7.60;99.90;;;;;;4944258;28;20047;-73
2023/01/10 07:24:49;;;;;;;19.30;7.57;;;-7.70;99.90;;;;;;4942411;29;20139;-73
2023/01/10 07:27:17;;;;;;;17.63;7.93;;;-7.60;99.90;;;;;;4940377;28;20113;-72
2023/01/10 07:29:44;;;;;;;15.90;7.70;;;-7.70;99.90;;;;;;4942101;28;20528;-73
2023/01/10 07:32:12;;;;;;;19.30;7.45;;;-7.70;99.90;;;;;;4946920;28;20146;-74
2023/01/10 07:34:39;;;;;;;19.20;7.63;;;-7.70;99.90;;;;;;4947176;28;20106;-74
2023/01/10 07:37:08;;;;;;;20.00;8.65;;;-7.70;99.90;;;;;;4943209;28;20078;-73
2023/01/10 07:39:35;;;;;;;18.98;8.70;;;-7.70;99.90;;;;;;4945746;28;20054;-73
2023/01/10 07:42:03;;;;;;;17.45;7.88;;;-7.70;99.90;;;;;;4931111;28;20871;-71
2023/01/10 07:44:32;;;;;;;21.50;8.52;;;-7.60;99.90;;;;;;4950221;28;20516;-71
2023/01/10 07:47:00;;;;;;;18.70;9.07;;;-7.70;99.90;;;;;;4950668;28;20048;-73
2023/01/10 07:49:27;;;;;;;18.75;8.82;;;-7.60;99.90;;;;;;4951311;28;20039;-73
2023/01/10 07:51:54;;;;;;;18.38;8.05;;;-7.60;99.90;;;;;;4951788;28;20047;-74
2023/01/10 07:54:23;;;;;;;21.08;8.65;;;-7.60;99.90;;;;;;4951197;28;20035;-73
2023/01/10 07:56:50;;;;;;;19.58;8.00;;;-7.60;99.90;;;;;;4950773;28;20055;-72
2023/01/10 07:59:18;;;;;;;16.25;7.93;;;-7.70;99.90;;;;;;4949336;28;20512;-72
2023/01/10 08:01:46;;;;;;;17.50;8.48;;;-7.70;99.90;;;;;;4957284;28;20055;-74
2023/01/10 08:04:13;;;;;;;16.00;8.18;;;-7.70;99.90;;;;;;4950145;28;20050;-73
2023/01/10 08:06:41;;;;;;;19.25;8.55;;;-7.60;99.90;;;;;;4965031;28;20075;-73
2023/01/10 08:09:08;;;;;;;17.20;7.07;;;-7.60;99.90;;;;;;4954976;28;20460;-74
2023/01/10 08:11:37;;;;;;;20.73;9.48;;;-7.60;99.90;;;;;;4958948;28;20043;-74
2023/01/10 08:14:08;;;;;;;22.65;8.70;;;-7.50;99.90;;;;;;4954050;28;20452;-73
2023/01/10 08:17:05;;;;;;;18.92;9.23;;;-7.50;99.90;;;;;;4949639;28;20059;-73
2023/01/10 08:19:42;;;;;;;22.13;8.63;;;-7.40;99.90;;;;;;4940964;28;20075;-73
2023/01/10 08:23:31;;;;;;;;;;;;;;;;;;;;;
2023/01/10 08:26:04;;;;;;;17.05;7.78;;;-7.30;99.90;;;;;;4968674;28;20044;-68
2023/01/10 08:28:37;;;;;;;17.52;8.00;;;-7.30;99.90;;;;;;4958388;28;20668;-69
2023/01/10 08:31:07;;;;;;;17.08;7.45;;;-7.40;99.90;;;;;;4948160;28;20094;-68
2023/01/10 08:33:35;;;;;;;17.83;8.02;;;-7.30;99.90;;;;;;4950704;28;20049;-73
2023/01/10 08:36:03;;;;;;;18.65;8.27;;;-7.20;99.90;;;;;;4947861;28;20114;-73
2023/01/10 08:38:30;;;;;;;17.92;7.70;;;-7.20;99.90;;;;;;4950627;28;20186;-71
2023/01/10 08:40:58;;;;;;;16.65;8.02;;;-7.20;99.90;;;;;;4950415;28;20160;-73
2023/01/10 08:43:25;;;;;;;19.10;8.77;;;-7.20;99.90;;;;;;4957171;28;20215;-71
2023/01/10 08:45:54;;;;;;;18.50;8.65;;;-7.20;99.90;;;;;;4948334;28;20062;-74
2023/01/10 08:48:21;;;;;;;17.20;8.13;;;-7.20;99.90;;;;;;4950707;28;20111;-73
2023/01/10 08:50:49;;;;;;;16.52;7.82;;;-7.10;99.90;;;;;;4949102;28;20229;-72
2023/01/10 08:53:17;;;;;;;21.40;8.48;;;-7.20;99.90;;;;;;4950175;28;20049;-73
2023/01/10 08:55:45;;;;;;;19.05;8.77;;;-7.20;99.90;;;;;;4948879;28;20155;-73
2023/01/10 08:58:12;;;;;;;16.60;7.28;;;-7.20;99.90;;;;;;4961939;28;20046;-73
2023/01/10 09:00:41;;;;;;;19.00;9.40;;;-7.20;99.90;;;;;;4948865;28;20524;-74
2023/01/10 09:03:10;;;;;;;19.23;8.43;;;-7.20;99.90;;;;;;4948656;28;20528;-74
2023/01/10 09:05:37;;;;;;;22.50;8.60;;;-7.20;99.90;;;;;;4948871;28;20503;-72
2023/01/10 09:08:05;;;;;;;18.67;8.18;;;-7.10;99.90;;;;;;4949973;28;20047;-72
2023/01/10 09:10:33;;;;;;;18.67;8.27;;;-7.10;99.90;;;;;;4950195;28;20063;-72
2023/01/10 09:13:01;;;;;;;13.82;6.78;;;-7.00;99.90;;;;;;4948099;28;20070;-73
2023/01/10 09:15:31;;;;;;;15.25;7.47;;;-7.00;99.90;;;;;;4948354;28;20069;-73
2023/01/10 09:18:03;;;;;;;17.90;8.27;;;-7.00;99.90;;;;;;4947547;28;20047;-71
2023/01/10 09:20:36;;;;;;;14.48;7.63;;;-7.00;99.90;;;;;;4953909;28;20050;-72
2023/01/10 09:23:08;;;;;;;18.52;7.78;;;-7.00;99.90;;;;;;4948773;28;20515;-72
2023/01/10 09:25:36;;;;;;;15.65;7.80;;;-7.00;99.90;;;;;;4962810;28;20405;-73
2023/01/10 09:28:05;;;;;;;16.65;8.32;;;-7.00;99.90;;;;;;4953048;28;20479;-72
2023/01/10 09:30:33;;;;;;;15.30;8.02;;;-7.00;99.90;;;;;;4947616;28;20051;-72
2023/01/10 09:33:01;;;;;;;17.48;8.40;;;-6.90;99.90;;;;;;4952435;28;20135;-72
2023/01/10 09:35:32;;;;;;;17.02;7.22;;;-6.90;99.90;;;;;;4950039;28;20048;-72
2023/01/10 09:38:01;;;;;;;15.38;8.38;;;-6.90;99.90;;;;;;4968079;28;20492;-72
2023/01/10 09:40:47;;;;;;;15.68;6.72;;;-6.90;99.90;;;;;;4955212;28;20051;-73
2023/01/10 09:43:23;;;;;;;14.82;7.85;;;-6.90;99.90;;;;;;4960672;28;20146;-73
2023/01/10 09:45:59;;;;;;;16.52;6.82;;;-6.90;99.90;;;;;;4968397;28;20050;-68
2023/01/10 09:48:38;;;;;;;10.40;5.97;;;-6.80;99.90;;;;;;4954507;28;20138;-68
2023/01/10 09:51:29;;;;;;;18.80;7.38;;;-6.90;99.90;;;;;;4949391;28;20464;-68
2023/01/10 09:54:00;;;;;;;20.27;7.18;;;-6.90;99.90;;;;;;4949079;28;20339;-70
2023/01/10 09:56:29;;;;;;;15.98;7.90;;;-6.90;99.90;;;;;;4948763;28;20102;-68
2023/01/10 09:58:59;;;;;;;18.88;6.95;;;-6.90;99.90;;;;;;4948073;28;20050;-70
2023/01/10 10:01:35;;;;;;;16.63;7.88;;;-6.90;99.90;;;;;;4948731;28;20039;-69
2023/01/10 10:04:15;;;;;;;18.25;8.10;;;-6.90;99.90;;;;;;4944106;28;20114;-68
2023/01/10 10:06:44;;;;;;;15.15;6.97;;;-6.80;99.90;;;;;;4947567;28;20065;-68
2023/01/10 10:09:15;;;;;;;18.52;8.05;;;-6.80;99.90;;;;;;4946144;28;20051;-68
2023/01/10 10:11:55;;;;;;;17.35;7.22;;;-6.70;99.90;;;;;;4962197;28;20483;-67
2023/01/10 10:14:37;;;;;;;16.77;7.78;;;-6.70;99.90;;;;;;4946108;28;20047;-70
2023/01/10 10:17:26;;;;;;;18.37;7.17;;;-6.60;99.90;;;;;;4946990;28;20047;-67
2023/01/10 10:20:10;;;;;;;18.88;8.05;;;-6.60;99.90;;;;;;4949530;28;20573;-69
2023/01/10 10:22:52;;;;;;;15.23;6.85;;;-6.50;99.90;;;;;;4955280;28;20051;-69
2023/01/10 10:25:39;;;;;;;16.67;7.10;;;-6.40;99.90;;;;;;4945676;28;20047;-69
2023/01/10 10:28:30;;;;;;;16.17;7.35;;;-6.40;99.90;;;;;;4949894;28;20067;-70
2023/01/10 10:31:10;;;;;;;13.98;7.72;;;-6.40;99.90;;;;;;4946934;28;20058;-69
2023/01/10 10:33:53;;;;;;;16.13;7.32;;;-6.40;99.90;;;;;;4949542;28;20051;-68
2023/01/10 10:36:25;;;;;;;14.35;7.45;;;-6.30;99.90;;;;;;4948087;28;20043;-69
2023/01/10 10:38:58;;;;;;;18.20;7.32;;;-6.30;99.90;;;;;;4949330;28;21437;-69
2023/01/10 10:41:33;;;;;;;16.67;7.75;;;-6.30;99.90;;;;;;4948317;28;20047;-68
2023/01/10 10:44:25;;;;;;;15.80;7.97;;;-6.20;99.90;;;;;;4953900;28;20046;-66
2023/01/10 10:46:53;;;;;;;15.45;7.65;;;-6.10;99.90;;;;;;4949955;28;20583;-70
2023/01/10 10:49:30;;;;;;;18.92;8.20;;;-6.10;99.90;;;;;;4949315;28;20037;-70
2023/01/10 10:52:00;;;;;;;17.80;8.05;;;-6.10;99.90;;;;;;4946914;28;20527;-68
2023/01/10 10:54:28;;;;;;;18.05;8.45;;;-6.10;99.90;;;;;;4949772;28;20500;-68
2023/01/10 10:56:57;;;;;;;18.80;9.45;;;-6.10;99.90;;;;;;4947073;28;20169;-71
2023/01/10 10:59:24;;;;;;;18.50;8.50;;;-6.10;99.90;;;;;;4946678;28;20418;-67
2023/01/10 11:01:52;;;;;;;18.45;7.88;;;-6.10;99.90;;;;;;4946853;28;20097;-69
2023/01/10 11:04:23;;;;;;;16.48;8.90;;;-6.10;99.90;;;;;;4960972;28;20066;-68
2023/01/10 11:06:51;;;;;;;15.15;8.00;;;-6.00;99.90;;;;;;4948880;28;20449;-67
2023/01/10 11:09:22;;;;;;;18.10;7.47;;;-6.00;99.90;;;;;;4948013;28;20073;-68
2023/01/10 11:11:53;;;;;;;14.57;8.35;;;-5.90;99.90;;;;;;4945015;28;20510;-71
2023/01/10 11:14:44;;;;;;;21.38;9.05;;;-5.90;99.90;;;;;;4947480;28;20082;-68
2023/01/10 11:17:21;;;;;;;17.05;8.43;;;-5.80;99.90;;;;;;4949790;28;20411;-70
2023/01/10 11:19:58;;;;;;;16.77;7.75;;;-5.80;99.90;;;;;;4950903;28;20624;-70
2023/01/10 11:22:28;;;;;;;15.90;7.57;;;-5.80;99.90;;;;;;4952696;28;20055;-69
2023/01/10 11:24:58;;;;;;;16.02;7.35;;;-5.80;99.90;;;;;;4956728;28;20059;-69
2023/01/10 11:27:31;;;;;;;20.05;7.13;;;-5.80;99.90;;;;;;4951783;28;20055;-70
2023/01/10 11:30:02;;;;;;;16.48;8.20;;;-5.90;99.90;;;;;;4953565;28;20067;-69
2023/01/10 11:32:35;;;;;;;14.63;7.18;;;-5.80;99.90;;;;;;4955233;28;20058;-70
2023/01/10 11:35:08;;;;;;;15.85;7.35;;;-5.80;99.90;;;;;;4954988;28;20059;-68
2023/01/10 11:37:36;;;;;;;15.32;7.68;;;-5.70;99.90;;;;;;4951806;28;20492;-70
2023/01/10 11:40:22;;;;;;;14.90;7.03;;;-5.70;99.90;;;;;;4952187;28;20094;-71
2023/01/10 11:42:54;;;;;;;17.42;8.18;;;-5.70;99.90;;;;;;4959714;28;20051;-67
2023/01/10 11:45:30;;;;;;;19.52;9.13;;;-5.70;99.90;;;;;;4970557;28;20042;-69
2023/01/10 11:48:07;;;;;;;22.35;8.98;;;-5.60;99.90;;;;;;4960377;28;20051;-70
2023/01/10 11:50:38;;;;;;;16.42;7.63;;;-5.60;99.90;;;;;;4952580;28;20079;-70
2023/01/10 11:53:07;;;;;;;21.52;9.13;;;-5.70;99.90;;;;;;4951425;28;20044;-69
2023/01/10 11:55:37;;;;;;;16.55;7.63;;;-5.70;99.90;;;;;;4950740;28;20039;-69
2023/01/10 11:58:13;;;;;;;20.83;8.35;;;-5.70;99.90;;;;;;4949334;28;20059;-69
2023/01/10 12:00:44;;;;;;;16.92;8.60;;;-5.70;99.90;;;;;;4950900;28;20058;-71
2023/01/10 12:03:22;;;;;;;20.63;8.00;;;-5.60;99.90;;;;;;4965776;28;20456;-71
2023/01/10 12:05:53;;;;;;;13.55;7.25;;;-5.60;99.90;;;;;;4947847;28;20051;-71
2023/01/10 12:08:29;;;;;;;14.27;7.60;;;-5.50;99.90;;;;;;4951504;28;20039;-70
2023/01/10 12:11:01;;;;;;;13.80;7.50;;;-5.50;99.90;;;;;;4950151;28;20491;-69
2023/01/10 12:13:43;;;;;;;17.10;7.67;;;-5.40;99.90;;;;;;4950524;28;20511;-72
2023/01/10 12:16:21;;;;;;;18.80;8.52;;;-5.40;99.90;;;;;;4950403;28;20059;-69
2023/01/10 12:18:50;;;;;;;18.02;8.43;;;-5.30;99.90;;;;;;4949626;28;20062;-69
2023/01/10 12:21:27;;;;;;;19.13;9.35;;;-5.30;99.90;;;;;;4949924;28;20047;-70
2023/01/10 12:23:58;;;;;;;18.35;7.88;;;-5.30;99.90;;;;;;4947372;28;20070;-70
2023/01/10 12:26:30;;;;;;;17.58;8.88;;;-5.20;99.90;;;;;;4948455;28;20117;-68
2023/01/10 12:29:22;;;;;;;18.67;8.90;;;-5.30;99.90;;;;;;4948968;28;20057;-72
2023/01/10 12:31:51;;;;;;;24.67;9.20;;;-5.20;99.90;;;;;;4952212;28;20058;-72
2023/01/10 12:34:21;;;;;;;23.15;9.60;;;-5.20;99.90;;;;;;4950859;28;20050;-70
2023/01/10 12:37:01;;;;;;;18.75;9.48;;;-5.20;99.90;;;;;;4950596;28;20154;-70
2023/01/10 12:39:33;;;;;;;21.92;8.98;;;-5.20;99.90;;;;;;4957094;28;20554;-71
2023/01/10 12:45:13;;;;;;;19.42;8.77;;;-5.00;99.90;;;;;;4949825;28;20113;-69
2023/01/10 12:47:56;;;;;;;25.40;9.48;;;-5.00;99.90;;;;;;4951699;28;20625;-73
2023/01/10 12:50:28;;;;;;;16.02;9.65;;;-4.90;99.90;;;;;;4966851;28;20047;-76
2023/01/10 12:53:04;;;;;;;27.35;9.02;;;-4.90;99.90;;;;;;4950047;28;20047;-74
2023/01/10 12:55:40;;;;;;;24.95;10.27;;;-4.80;99.90;;;;;;4952983;28;20047;-73
2023/01/10 12:58:16;;;;;;;21.95;9.32;;;-4.80;99.90;;;;;;4951251;28;20059;-74
2023/01/10 13:00:49;;;;;;;21.83;10.57;;;-4.80;99.90;;;;;;4947629;28;20110;-73
2023/01/10 13:03:23;;;;;;;18.30;9.57;;;-4.70;99.90;;;;;;4951007;28;20161;-73
2023/01/10 13:05:51;;;;;;;18.42;10.10;;;-4.70;99.90;;;;;;4947624;28;20150;-74
2023/01/10 13:08:25;;;;;;;18.58;10.00;;;-4.70;99.90;;;;;;4952472;28;20047;-69
2023/01/10 13:10:56;;;;;;;21.92;10.40;;;-4.80;99.90;;;;;;4962439;28;20066;-74